sensor_id;sensor_type;location;lat;lon;timestamp;temperature;humidity
57108;DHT22;42987;52.916;6.542;2023-07-29T00:00:51;18.50;99.90
57108;DHT22;42987;52.916;6.542;2023-07-29T00:03:20;18.50;99.90
57108;DHT22;42987;52.916;6.542;2023-07-29T00:05:47;18.40;99.90
57108;DHT22;42987;52.916;6.542;2023-07-29T00:08:12;18.40;99.90
57108;DHT22;42987;52.916;6.542;2023-07-29T00:10:38;18.40;99.90
57108;DHT22;42987;52.916;6.542;2023-07-29T00:13:05;18.40;99.90
57108;DHT22;42987;52.916;6.542;2023-07-29T00:15:31;18.30;99.90
57108;DHT22;42987;52.916;6.542;2023-07-29T00:17:57;18.40;99.90
57108;DHT22;42987;52.916;6.542;2023-07-29T00:20:23;18.30;99.90
57108;DHT22;42987;52.916;6.542;2023-07-29T00:22:49;18.30;99.90
57108;DHT22;42987;52.916;6.542;2023-07-29T00:25:19;18.30;99.90
57108;DHT22;42987;52.916;6.542;2023-07-29T00:27:44;18.20;99.90
57108;DHT22;42987;52.916;6.542;2023-07-29T00:30:10;18.20;99.90
57108;DHT22;42987;52.916;6.542;2023-07-29T00:32:36;18.20;99.90
57108;DHT22;42987;52.916;6.542;2023-07-29T00:35:06;18.20;99.90
57108;DHT22;42987;52.916;6.542;2023-07-29T00:37:33;18.20;99.90
57108;DHT22;42987;52.916;6.542;2023-07-29T00:39:58;18.10;99.90
57108;DHT22;42987;52.916;6.542;2023-07-29T00:42:24;18.10;99.90
57108;DHT22;42987;52.916;6.542;2023-07-29T00:44:50;18.10;99.90
57108;DHT22;42987;52.916;6.542;2023-07-29T00:47:16;18.10;99.90
57108;DHT22;42987;52.916;6.542;2023-07-29T00:49:45;18.10;99.90
57108;DHT22;42987;52.916;6.542;2023-07-29T00:52:11;18.10;99.90
57108;DHT22;42987;52.916;6.542;2023-07-29T00:54:41;18.10;99.90
57108;DHT22;42987;52.916;6.542;2023-07-29T00:57:08;18.10;99.90
57108;DHT22;42987;52.916;6.542;2023-07-29T00:59:36;18.10;99.90
57108;DHT22;42987;52.916;6.542;2023-07-29T01:02:02;18.10;99.90
57108;DHT22;42987;52.916;6.542;2023-07-29T01:04:28;18.10;99.90
57108;DHT22;42987;52.916;6.542;2023-07-29T01:07:51;18.10;99.90
57108;DHT22;42987;52.916;6.542;2023-07-29T01:09:58;18.10;99.90
57108;DHT22;42987;52.916;6.542;2023-07-29T01:15:01;18.00;99.90
57108;DHT22;42987;52.916;6.542;2023-07-29T01:17:40;18.00;99.90
57108;DHT22;42987;52.916;6.542;2023-07-29T01:20:14;17.90;99.90
57108;DHT22;42987;52.916;6.542;2023-07-29T01:22:41;17.90;99.90
57108;DHT22;42987;52.916;6.542;2023-07-29T01:25:10;17.90;99.90
57108;DHT22;42987;52.916;6.542;2023-07-29T01:27:36;17.80;99.90
57108;DHT22;42987;52.916;6.542;2023-07-29T01:30:02;17.80;99.90
57108;DHT22;42987;52.916;6.542;2023-07-29T01:37:37;17.70;99.90
57108;DHT22;42987;52.916;6.542;2023-07-29T01:40:05;17.70;99.90
57108;DHT22;42987;52.916;6.542;2023-07-29T01:42:33;17.70;99.90
57108;DHT22;42987;52.916;6.542;2023-07-29T01:44:59;17.60;99.90
57108;DHT22;42987;52.916;6.542;2023-07-29T01:47:25;17.60;99.90
57108;DHT22;42987;52.916;6.542;2023-07-29T01:49:51;17.60;99.90
57108;DHT22;42987;52.916;6.542;2023-07-29T01:52:17;17.60;99.90
57108;DHT22;42987;52.916;6.542;2023-07-29T01:54:43;17.60;99.90
57108;DHT22;42987;52.916;6.542;2023-07-29T01:57:09;17.60;99.90
57108;DHT22;42987;52.916;6.542;2023-07-29T01:59:35;17.50;99.90
57108;DHT22;42987;52.916;6.542;2023-07-29T02:02:00;17.50;99.90
57108;DHT22;42987;52.916;6.542;2023-07-29T02:04:26;17.50;99.90
57108;DHT22;42987;52.916;6.542;2023-07-29T02:06:52;17.50;99.90
57108;DHT22;42987;52.916;6.542;2023-07-29T02:09:18;17.50;99.90
57108;DHT22;42987;52.916;6.542;2023-07-29T02:11:43;17.50;99.90
57108;DHT22;42987;52.916;6.542;2023-07-29T02:14:09;17.50;99.90
57108;DHT22;42987;52.916;6.542;2023-07-29T02:16:35;17.50;99.90
57108;DHT22;42987;52.916;6.542;2023-07-29T02:19:01;17.50;99.90
57108;DHT22;42987;52.916;6.542;2023-07-29T02:21:27;17.50;99.90
57108;DHT22;42987;52.916;6.542;2023-07-29T02:23:53;17.50;99.90
57108;DHT22;42987;52.916;6.542;2023-07-29T02:26:18;17.40;99.90
57108;DHT22;42987;52.916;6.542;2023-07-29T02:28:44;17.40;99.90
57108;DHT22;42987;52.916;6.542;2023-07-29T02:33:45;17.40;99.90
57108;DHT22;42987;52.916;6.542;2023-07-29T02:36:12;17.40;99.90
57108;DHT22;42987;52.916;6.542;2023-07-29T02:38:39;17.40;99.90
57108;DHT22;42987;52.916;6.542;2023-07-29T02:41:04;17.30;99.90
57108;DHT22;42987;52.916;6.542;2023-07-29T02:43:30;17.30;99.90
57108;DHT22;42987;52.916;6.542;2023-07-29T02:45:56;17.30;99.90
57108;DHT22;42987;52.916;6.542;2023-07-29T02:48:22;17.30;99.90
57108;DHT22;42987;52.916;6.542;2023-07-29T02:50:47;17.30;99.90
57108;DHT22;42987;52.916;6.542;2023-07-29T02:53:13;17.30;99.90
57108;DHT22;42987;52.916;6.542;2023-07-29T02:55:42;17.30;99.90
57108;DHT22;42987;52.916;6.542;2023-07-29T02:58:08;17.30;99.90
57108;DHT22;42987;52.916;6.542;2023-07-29T03:00:34;17.30;99.90
57108;DHT22;42987;52.916;6.542;2023-07-29T03:03:00;17.30;99.90
57108;DHT22;42987;52.916;6.542;2023-07-29T03:05:28;17.30;99.90
57108;DHT22;42987;52.916;6.542;2023-07-29T03:07:54;17.30;99.90
57108;DHT22;42987;52.916;6.542;2023-07-29T03:10:20;17.30;99.90
57108;DHT22;42987;52.916;6.542;2023-07-29T03:12:46;17.30;99.90
57108;DHT22;42987;52.916;6.542;2023-07-29T03:15:12;17.30;99.90
57108;DHT22;42987;52.916;6.542;2023-07-29T03:17:38;17.30;99.90
57108;DHT22;42987;52.916;6.542;2023-07-29T03:20:04;17.30;99.90
57108;DHT22;42987;52.916;6.542;2023-07-29T03:22:30;17.30;99.90
57108;DHT22;42987;52.916;6.542;2023-07-29T03:24:56;17.30;99.90
57108;DHT22;42987;52.916;6.542;2023-07-29T03:27:22;17.30;99.90
57108;DHT22;42987;52.916;6.542;2023-07-29T03:29:47;17.20;99.90
57108;DHT22;42987;52.916;6.542;2023-07-29T03:32:13;17.20;99.90
57108;DHT22;42987;52.916;6.542;2023-07-29T03:34:39;17.10;99.90
57108;DHT22;42987;52.916;6.542;2023-07-29T03:37:06;17.10;99.90
57108;DHT22;42987;52.916;6.542;2023-07-29T03:39:32;17.10;99.90
57108;DHT22;42987;52.916;6.542;2023-07-29T03:41:58;17.10;99.90
57108;DHT22;42987;52.916;6.542;2023-07-29T03:44:23;17.10;99.90
57108;DHT22;42987;52.916;6.542;2023-07-29T03:46:49;17.00;99.90
57108;DHT22;42987;52.916;6.542;2023-07-29T03:49:15;17.00;99.90
57108;DHT22;42987;52.916;6.542;2023-07-29T03:51:41;17.00;99.90
57108;DHT22;42987;52.916;6.542;2023-07-29T03:54:06;17.00;99.90
57108;DHT22;42987;52.916;6.542;2023-07-29T03:56:33;17.00;99.90
57108;DHT22;42987;52.916;6.542;2023-07-29T03:59:05;16.90;99.90
57108;DHT22;42987;52.916;6.542;2023-07-29T04:01:31;16.90;99.90
57108;DHT22;42987;52.916;6.542;2023-07-29T04:03:58;16.90;99.90
57108;DHT22;42987;52.916;6.542;2023-07-29T04:06:24;16.90;99.90
57108;DHT22;42987;52.916;6.542;2023-07-29T04:08:51;16.90;99.90
57108;DHT22;42987;52.916;6.542;2023-07-29T04:11:17;16.90;99.90
57108;DHT22;42987;52.916;6.542;2023-07-29T04:13:43;16.90;99.90
57108;DHT22;42987;52.916;6.542;2023-07-29T04:16:08;16.90;99.90
57108;DHT22;42987;52.916;6.542;2023-07-29T04:18:34;16.80;99.90
57108;DHT22;42987;52.916;6.542;2023-07-29T04:21:03;16.80;99.90
57108;DHT22;42987;52.916;6.542;2023-07-29T04:23:29;16.90;99.90
57108;DHT22;42987;52.916;6.542;2023-07-29T04:25:55;16.90;99.90
57108;DHT22;42987;52.916;6.542;2023-07-29T04:28:21;16.90;99.90
57108;DHT22;42987;52.916;6.542;2023-07-29T04:30:46;16.90;99.90
57108;DHT22;42987;52.916;6.542;2023-07-29T04:33:12;16.90;99.90
57108;DHT22;42987;52.916;6.542;2023-07-29T04:35:38;16.90;99.90
57108;DHT22;42987;52.916;6.542;2023-07-29T04:38:04;16.90;99.90
57108;DHT22;42987;52.916;6.542;2023-07-29T04:40:33;16.90;99.90
57108;DHT22;42987;52.916;6.542;2023-07-29T04:43:02;16.90;99.90
57108;DHT22;42987;52.916;6.542;2023-07-29T04:45:31;16.90;99.90
57108;DHT22;42987;52.916;6.542;2023-07-29T04:47:58;16.90;99.90
57108;DHT22;42987;52.916;6.542;2023-07-29T04:50:24;16.90;99.90
57108;DHT22;42987;52.916;6.542;2023-07-29T04:52:49;16.90;99.90
57108;DHT22;42987;52.916;6.542;2023-07-29T04:55:15;17.00;99.90
57108;DHT22;42987;52.916;6.542;2023-07-29T04:57:41;16.90;99.90
57108;DHT22;42987;52.916;6.542;2023-07-29T05:00:10;16.90;99.90
57108;DHT22;42987;52.916;6.542;2023-07-29T05:02:36;17.00;99.90
57108;DHT22;42987;52.916;6.542;2023-07-29T05:05:02;17.00;99.90
57108;DHT22;42987;52.916;6.542;2023-07-29T05:07:28;17.00;99.90
57108;DHT22;42987;52.916;6.542;2023-07-29T05:09:54;17.00;99.90
57108;DHT22;42987;52.916;6.542;2023-07-29T05:12:19;17.00;99.90
57108;DHT22;42987;52.916;6.542;2023-07-29T05:14:45;17.00;99.90
57108;DHT22;42987;52.916;6.542;2023-07-29T05:17:11;17.00;99.90
57108;DHT22;42987;52.916;6.542;2023-07-29T05:19:37;17.00;99.90
57108;DHT22;42987;52.916;6.542;2023-07-29T05:22:03;17.00;99.90
57108;DHT22;42987;52.916;6.542;2023-07-29T05:24:29;17.00;99.90
57108;DHT22;42987;52.916;6.542;2023-07-29T05:26:55;17.00;99.90
57108;DHT22;42987;52.916;6.542;2023-07-29T05:29:20;17.00;99.90
57108;DHT22;42987;52.916;6.542;2023-07-29T05:31:46;17.00;99.90
57108;DHT22;42987;52.916;6.542;2023-07-29T05:34:12;17.00;99.90
57108;DHT22;42987;52.916;6.542;2023-07-29T05:36:38;17.10;99.90
57108;DHT22;42987;52.916;6.542;2023-07-29T05:39:04;17.10;99.90
57108;DHT22;42987;52.916;6.542;2023-07-29T05:41:30;17.10;99.90
57108;DHT22;42987;52.916;6.542;2023-07-29T05:43:56;17.10;99.90
57108;DHT22;42987;52.916;6.542;2023-07-29T05:46:21;17.10;99.90
57108;DHT22;42987;52.916;6.542;2023-07-29T05:48:47;17.10;99.90
57108;DHT22;42987;52.916;6.542;2023-07-29T05:51:13;17.10;99.90
57108;DHT22;42987;52.916;6.542;2023-07-29T05:53:39;17.10;99.90
57108;DHT22;42987;52.916;6.542;2023-07-29T05:56:08;17.10;99.90
57108;DHT22;42987;52.916;6.542;2023-07-29T05:58:33;17.10;99.90
57108;DHT22;42987;52.916;6.542;2023-07-29T06:01:02;17.10;99.90
57108;DHT22;42987;52.916;6.542;2023-07-29T06:03:28;17.20;99.90
57108;DHT22;42987;52.916;6.542;2023-07-29T06:05:54;17.20;99.90
57108;DHT22;42987;52.916;6.542;2023-07-29T06:08:20;17.20;99.90
57108;DHT22;42987;52.916;6.542;2023-07-29T06:10:45;17.20;99.90
57108;DHT22;42987;52.916;6.542;2023-07-29T06:13:11;17.20;99.90
57108;DHT22;42987;52.916;6.542;2023-07-29T06:15:37;17.20;99.90
57108;DHT22;42987;52.916;6.542;2023-07-29T06:18:03;17.30;99.90
57108;DHT22;42987;52.916;6.542;2023-07-29T06:20:29;17.20;99.90
57108;DHT22;42987;52.916;6.542;2023-07-29T06:22:54;17.30;99.90
57108;DHT22;42987;52.916;6.542;2023-07-29T06:25:20;17.30;99.90
57108;DHT22;42987;52.916;6.542;2023-07-29T06:27:46;17.30;99.90
57108;DHT22;42987;52.916;6.542;2023-07-29T06:30:12;17.40;99.90
57108;DHT22;42987;52.916;6.542;2023-07-29T06:32:38;17.50;99.90
57108;DHT22;42987;52.916;6.542;2023-07-29T06:35:04;17.60;99.90
57108;DHT22;42987;52.916;6.542;2023-07-29T06:37:30;17.70;99.90
57108;DHT22;42987;52.916;6.542;2023-07-29T06:39:56;17.70;99.90
57108;DHT22;42987;52.916;6.542;2023-07-29T06:42:21;17.80;99.90
57108;DHT22;42987;52.916;6.542;2023-07-29T06:44:47;17.80;99.90
57108;DHT22;42987;52.916;6.542;2023-07-29T06:47:13;17.90;99.90
57108;DHT22;42987;52.916;6.542;2023-07-29T06:49:39;17.90;99.90
57108;DHT22;42987;52.916;6.542;2023-07-29T06:52:04;17.90;99.90
57108;DHT22;42987;52.916;6.542;2023-07-29T06:54:30;17.90;99.90
57108;DHT22;42987;52.916;6.542;2023-07-29T06:56:56;18.00;99.90
57108;DHT22;42987;52.916;6.542;2023-07-29T06:59:22;18.00;99.90
57108;DHT22;42987;52.916;6.542;2023-07-29T07:01:50;18.00;99.90
57108;DHT22;42987;52.916;6.542;2023-07-29T07:04:15;18.10;99.90
57108;DHT22;42987;52.916;6.542;2023-07-29T07:06:41;18.10;99.90
57108;DHT22;42987;52.916;6.542;2023-07-29T07:09:07;18.20;99.90
57108;DHT22;42987;52.916;6.542;2023-07-29T07:11:33;18.20;99.90
57108;DHT22;42987;52.916;6.542;2023-07-29T07:13:59;18.30;99.90
57108;DHT22;42987;52.916;6.542;2023-07-29T07:16:25;18.50;99.90
57108;DHT22;42987;52.916;6.542;2023-07-29T07:18:51;18.50;99.90
57108;DHT22;42987;52.916;6.542;2023-07-29T07:21:17;18.60;99.90
57108;DHT22;42987;52.916;6.542;2023-07-29T07:23:43;18.70;99.90
57108;DHT22;42987;52.916;6.542;2023-07-29T07:26:09;18.70;99.90
57108;DHT22;42987;52.916;6.542;2023-07-29T07:28:34;18.70;99.90
57108;DHT22;42987;52.916;6.542;2023-07-29T07:31:00;18.70;99.90
57108;DHT22;42987;52.916;6.542;2023-07-29T07:33:26;18.70;99.90
57108;DHT22;42987;52.916;6.542;2023-07-29T07:35:52;18.70;99.90
57108;DHT22;42987;52.916;6.542;2023-07-29T07:38:17;18.80;99.90
57108;DHT22;42987;52.916;6.542;2023-07-29T07:40:57;18.80;99.90
57108;DHT22;42987;52.916;6.542;2023-07-29T07:43:23;18.90;99.90
57108;DHT22;42987;52.916;6.542;2023-07-29T07:45:49;18.90;99.90
57108;DHT22;42987;52.916;6.542;2023-07-29T07:48:15;19.00;99.90
57108;DHT22;42987;52.916;6.542;2023-07-29T07:50:43;19.00;99.90
57108;DHT22;42987;52.916;6.542;2023-07-29T07:53:08;19.00;99.90
57108;DHT22;42987;52.916;6.542;2023-07-29T07:55:34;19.00;99.90
57108;DHT22;42987;52.916;6.542;2023-07-29T07:58:00;19.00;99.90
57108;DHT22;42987;52.916;6.542;2023-07-29T08:00:25;19.00;99.90
57108;DHT22;42987;52.916;6.542;2023-07-29T08:02:51;19.10;99.90
57108;DHT22;42987;52.916;6.542;2023-07-29T08:05:17;19.10;99.90
57108;DHT22;42987;52.916;6.542;2023-07-29T08:07:43;19.10;99.90
57108;DHT22;42987;52.916;6.542;2023-07-29T08:10:09;19.20;99.90
57108;DHT22;42987;52.916;6.542;2023-07-29T08:12:35;19.20;99.90
57108;DHT22;42987;52.916;6.542;2023-07-29T08:15:01;19.20;99.90
57108;DHT22;42987;52.916;6.542;2023-07-29T08:17:27;19.20;99.90
57108;DHT22;42987;52.916;6.542;2023-07-29T08:19:52;19.20;99.90
57108;DHT22;42987;52.916;6.542;2023-07-29T08:22:18;19.30;99.90
57108;DHT22;42987;52.916;6.542;2023-07-29T08:24:44;19.40;99.90
57108;DHT22;42987;52.916;6.542;2023-07-29T08:27:10;19.50;99.90
57108;DHT22;42987;52.916;6.542;2023-07-29T08:29:36;19.80;99.90
57108;DHT22;42987;52.916;6.542;2023-07-29T08:32:02;20.00;99.90
57108;DHT22;42987;52.916;6.542;2023-07-29T08:34:27;20.20;99.90
57108;DHT22;42987;52.916;6.542;2023-07-29T08:36:53;20.30;99.90
57108;DHT22;42987;52.916;6.542;2023-07-29T08:39:19;20.40;99.90
57108;DHT22;42987;52.916;6.542;2023-07-29T08:42:01;20.40;99.90
57108;DHT22;42987;52.916;6.542;2023-07-29T08:44:35;20.30;99.90
57108;DHT22;42987;52.916;6.542;2023-07-29T08:47:05;20.20;99.90
57108;DHT22;42987;52.916;6.542;2023-07-29T08:49:31;20.20;99.90
57108;DHT22;42987;52.916;6.542;2023-07-29T08:51:57;20.20;99.90
57108;DHT22;42987;52.916;6.542;2023-07-29T08:54:23;20.20;99.90
57108;DHT22;42987;52.916;6.542;2023-07-29T08:56:49;20.20;99.90
57108;DHT22;42987;52.916;6.542;2023-07-29T08:59:16;20.20;99.90
57108;DHT22;42987;52.916;6.542;2023-07-29T09:01:47;20.20;99.90
57108;DHT22;42987;52.916;6.542;2023-07-29T09:04:16;20.20;99.90
57108;DHT22;42987;52.916;6.542;2023-07-29T09:06:43;20.30;99.90
57108;DHT22;42987;52.916;6.542;2023-07-29T09:09:10;20.50;99.90
57108;DHT22;42987;52.916;6.542;2023-07-29T09:11:38;20.70;99.90
57108;DHT22;42987;52.916;6.542;2023-07-29T09:14:04;20.90;99.90
57108;DHT22;42987;52.916;6.542;2023-07-29T09:16:30;21.10;99.90
57108;DHT22;42987;52.916;6.542;2023-07-29T09:18:56;21.30;99.90
57108;DHT22;42987;52.916;6.542;2023-07-29T09:21:26;21.30;99.90
57108;DHT22;42987;52.916;6.542;2023-07-29T09:23:54;21.50;99.90
57108;DHT22;42987;52.916;6.542;2023-07-29T09:26:27;21.50;99.90
57108;DHT22;42987;52.916;6.542;2023-07-29T09:28:54;21.60;99.90
57108;DHT22;42987;52.916;6.542;2023-07-29T09:31:22;21.60;99.90
57108;DHT22;42987;52.916;6.542;2023-07-29T09:33:48;21.50;99.90
57108;DHT22;42987;52.916;6.542;2023-07-29T09:36:14;21.60;99.90
57108;DHT22;42987;52.916;6.542;2023-07-29T09:38:40;21.70;99.90
57108;DHT22;42987;52.916;6.542;2023-07-29T09:41:06;21.90;99.90
57108;DHT22;42987;52.916;6.542;2023-07-29T09:43:33;22.00;99.90
57108;DHT22;42987;52.916;6.542;2023-07-29T09:46:01;22.10;99.90
57108;DHT22;42987;52.916;6.542;2023-07-29T09:48:27;22.20;99.90
57108;DHT22;42987;52.916;6.542;2023-07-29T09:50:55;22.30;99.90
57108;DHT22;42987;52.916;6.542;2023-07-29T09:53:21;22.40;99.90
57108;DHT22;42987;52.916;6.542;2023-07-29T09:55:47;22.40;99.90
57108;DHT22;42987;52.916;6.542;2023-07-29T09:58:26;22.50;99.90
57108;DHT22;42987;52.916;6.542;2023-07-29T10:00:55;22.60;99.90
57108;DHT22;42987;52.916;6.542;2023-07-29T10:03:21;22.60;99.90
57108;DHT22;42987;52.916;6.542;2023-07-29T10:05:50;22.40;99.90
57108;DHT22;42987;52.916;6.542;2023-07-29T10:08:18;22.30;99.90
57108;DHT22;42987;52.916;6.542;2023-07-29T10:10:44;22.30;99.90
57108;DHT22;42987;52.916;6.542;2023-07-29T10:13:10;22.10;99.90
57108;DHT22;42987;52.916;6.542;2023-07-29T10:15:37;22.10;99.90
57108;DHT22;42987;52.916;6.542;2023-07-29T10:18:03;22.10;99.90
57108;DHT22;42987;52.916;6.542;2023-07-29T10:20:31;22.10;99.90
57108;DHT22;42987;52.916;6.542;2023-07-29T10:22:59;22.10;99.90
57108;DHT22;42987;52.916;6.542;2023-07-29T10:25:35;22.00;99.90
57108;DHT22;42987;52.916;6.542;2023-07-29T10:28:08;21.90;99.90
57108;DHT22;42987;52.916;6.542;2023-07-29T10:30:38;21.70;99.90
57108;DHT22;42987;52.916;6.542;2023-07-29T10:33:05;21.60;99.90
57108;DHT22;42987;52.916;6.542;2023-07-29T10:35:35;21.70;99.90
57108;DHT22;42987;52.916;6.542;2023-07-29T10:38:05;21.80;99.90
57108;DHT22;42987;52.916;6.542;2023-07-29T10:40:48;21.80;99.90
57108;DHT22;42987;52.916;6.542;2023-07-29T10:43:23;21.70;99.90
57108;DHT22;42987;52.916;6.542;2023-07-29T10:45:50;21.50;99.90
57108;DHT22;42987;52.916;6.542;2023-07-29T10:54:11;21.10;99.90
57108;DHT22;42987;52.916;6.542;2023-07-29T10:56:41;21.00;99.90
57108;DHT22;42987;52.916;6.542;2023-07-29T11:02:46;20.90;99.90
57108;DHT22;42987;52.916;6.542;2023-07-29T11:04:57;20.60;99.90
57108;DHT22;42987;52.916;6.542;2023-07-29T11:07:24;20.20;99.90
57108;DHT22;42987;52.916;6.542;2023-07-29T11:09:56;20.00;99.90
57108;DHT22;42987;52.916;6.542;2023-07-29T11:20:08;19.90;99.90
57108;DHT22;42987;52.916;6.542;2023-07-29T11:22:34;20.00;99.90
57108;DHT22;42987;52.916;6.542;2023-07-29T11:25:00;20.00;99.90
57108;DHT22;42987;52.916;6.542;2023-07-29T11:27:26;20.00;99.90
57108;DHT22;42987;52.916;6.542;2023-07-29T11:30:04;20.20;99.90
57108;DHT22;42987;52.916;6.542;2023-07-29T11:32:34;20.40;99.90
57108;DHT22;42987;52.916;6.542;2023-07-29T11:35:08;20.60;99.90
57108;DHT22;42987;52.916;6.542;2023-07-29T11:37:36;20.50;99.90
57108;DHT22;42987;52.916;6.542;2023-07-29T11:40:03;20.50;99.90
57108;DHT22;42987;52.916;6.542;2023-07-29T11:42:34;20.50;99.90
57108;DHT22;42987;52.916;6.542;2023-07-29T11:45:01;20.50;99.90
57108;DHT22;42987;52.916;6.542;2023-07-29T11:47:28;20.50;99.90
57108;DHT22;42987;52.916;6.542;2023-07-29T11:49:58;20.60;99.90
57108;DHT22;42987;52.916;6.542;2023-07-29T11:52:24;20.60;99.90
57108;DHT22;42987;52.916;6.542;2023-07-29T11:54:50;20.60;99.90
57108;DHT22;42987;52.916;6.542;2023-07-29T11:57:17;20.60;99.90
57108;DHT22;42987;52.916;6.542;2023-07-29T11:59:44;20.60;99.90
57108;DHT22;42987;52.916;6.542;2023-07-29T12:02:12;20.60;99.90
57108;DHT22;42987;52.916;6.542;2023-07-29T12:04:38;20.80;99.90
57108;DHT22;42987;52.916;6.542;2023-07-29T12:07:05;20.90;99.90
57108;DHT22;42987;52.916;6.542;2023-07-29T12:09:31;21.20;99.90
57108;DHT22;42987;52.916;6.542;2023-07-29T12:11:57;21.30;99.90
57108;DHT22;42987;52.916;6.542;2023-07-29T12:14:26;21.40;99.90
57108;DHT22;42987;52.916;6.542;2023-07-29T12:16:53;21.50;99.90
57108;DHT22;42987;52.916;6.542;2023-07-29T12:19:19;21.70;99.90
57108;DHT22;42987;52.916;6.542;2023-07-29T12:21:47;21.90;99.90
57108;DHT22;42987;52.916;6.542;2023-07-29T12:24:14;22.00;99.90
57108;DHT22;42987;52.916;6.542;2023-07-29T12:26:42;22.00;99.90
57108;DHT22;42987;52.916;6.542;2023-07-29T12:29:13;21.90;99.90
57108;DHT22;42987;52.916;6.542;2023-07-29T12:31:39;21.80;99.90
57108;DHT22;42987;52.916;6.542;2023-07-29T12:34:05;21.80;99.90
57108;DHT22;42987;52.916;6.542;2023-07-29T12:36:49;22.00;99.90
57108;DHT22;42987;52.916;6.542;2023-07-29T12:41:51;22.60;99.90
57108;DHT22;42987;52.916;6.542;2023-07-29T12:44:17;22.70;99.90
57108;DHT22;42987;52.916;6.542;2023-07-29T12:46:43;22.80;99.90
57108;DHT22;42987;52.916;6.542;2023-07-29T12:49:09;22.90;99.90
57108;DHT22;42987;52.916;6.542;2023-07-29T12:51:35;23.00;99.90
57108;DHT22;42987;52.916;6.542;2023-07-29T12:54:02;23.00;99.90
57108;DHT22;42987;52.916;6.542;2023-07-29T12:56:28;22.90;99.90
57108;DHT22;42987;52.916;6.542;2023-07-29T12:58:56;22.70;99.90
57108;DHT22;42987;52.916;6.542;2023-07-29T13:01:23;22.60;99.90
57108;DHT22;42987;52.916;6.542;2023-07-29T13:03:49;22.60;99.90
57108;DHT22;42987;52.916;6.542;2023-07-29T13:06:14;22.70;99.90
57108;DHT22;42987;52.916;6.542;2023-07-29T13:08:41;22.70;99.90
57108;DHT22;42987;52.916;6.542;2023-07-29T13:11:07;22.60;99.90
57108;DHT22;42987;52.916;6.542;2023-07-29T13:13:33;22.50;99.90
57108;DHT22;42987;52.916;6.542;2023-07-29T13:15:59;22.50;99.90
57108;DHT22;42987;52.916;6.542;2023-07-29T13:18:25;22.40;99.90
57108;DHT22;42987;52.916;6.542;2023-07-29T13:20:54;22.40;99.90
57108;DHT22;42987;52.916;6.542;2023-07-29T13:23:20;22.60;99.90
57108;DHT22;42987;52.916;6.542;2023-07-29T13:25:46;22.70;99.90
57108;DHT22;42987;52.916;6.542;2023-07-29T13:28:16;22.80;99.90
57108;DHT22;42987;52.916;6.542;2023-07-29T13:30:42;22.80;99.90
57108;DHT22;42987;52.916;6.542;2023-07-29T13:33:08;22.80;99.90
57108;DHT22;42987;52.916;6.542;2023-07-29T13:35:34;22.70;99.90
57108;DHT22;42987;52.916;6.542;2023-07-29T13:38:00;22.70;99.90
57108;DHT22;42987;52.916;6.542;2023-07-29T13:40:27;22.60;99.90
57108;DHT22;42987;52.916;6.542;2023-07-29T13:42:53;22.70;99.90
57108;DHT22;42987;52.916;6.542;2023-07-29T13:45:19;22.80;99.90
57108;DHT22;42987;52.916;6.542;2023-07-29T13:47:45;22.80;99.90
57108;DHT22;42987;52.916;6.542;2023-07-29T13:50:10;22.80;99.90
57108;DHT22;42987;52.916;6.542;2023-07-29T13:52:37;22.80;99.90
57108;DHT22;42987;52.916;6.542;2023-07-29T13:55:04;22.70;99.90
57108;DHT22;42987;52.916;6.542;2023-07-29T13:57:31;22.70;99.90
57108;DHT22;42987;52.916;6.542;2023-07-29T13:59:57;22.80;99.90
57108;DHT22;42987;52.916;6.542;2023-07-29T14:02:23;23.00;99.90
57108;DHT22;42987;52.916;6.542;2023-07-29T14:04:49;23.10;99.90
57108;DHT22;42987;52.916;6.542;2023-07-29T14:07:14;23.20;99.90
57108;DHT22;42987;52.916;6.542;2023-07-29T14:09:40;23.20;99.90
57108;DHT22;42987;52.916;6.542;2023-07-29T14:12:08;23.10;99.90
57108;DHT22;42987;52.916;6.542;2023-07-29T14:14:44;23.00;99.90
57108;DHT22;42987;52.916;6.542;2023-07-29T14:17:09;22.90;99.90
57108;DHT22;42987;52.916;6.542;2023-07-29T14:19:39;22.80;99.90
57108;DHT22;42987;52.916;6.542;2023-07-29T14:22:04;22.70;99.90
57108;DHT22;42987;52.916;6.542;2023-07-29T14:24:30;22.50;99.90
57108;DHT22;42987;52.916;6.542;2023-07-29T14:26:59;22.40;99.90
57108;DHT22;42987;52.916;6.542;2023-07-29T14:29:24;22.20;99.90
57108;DHT22;42987;52.916;6.542;2023-07-29T14:31:51;22.10;99.90
57108;DHT22;42987;52.916;6.542;2023-07-29T14:34:17;22.20;99.90
57108;DHT22;42987;52.916;6.542;2023-07-29T14:36:42;22.30;99.90
57108;DHT22;42987;52.916;6.542;2023-07-29T14:39:08;22.30;99.90
57108;DHT22;42987;52.916;6.542;2023-07-29T14:41:34;22.30;99.90
57108;DHT22;42987;52.916;6.542;2023-07-29T14:44:00;22.20;99.90
57108;DHT22;42987;52.916;6.542;2023-07-29T14:46:26;22.20;99.90
57108;DHT22;42987;52.916;6.542;2023-07-29T14:48:51;22.10;99.90
57108;DHT22;42987;52.916;6.542;2023-07-29T14:51:17;22.00;99.90
57108;DHT22;42987;52.916;6.542;2023-07-29T14:53:43;21.90;99.90
57108;DHT22;42987;52.916;6.542;2023-07-29T14:56:09;21.80;99.90
57108;DHT22;42987;52.916;6.542;2023-07-29T14:58:34;21.80;99.90
57108;DHT22;42987;52.916;6.542;2023-07-29T15:01:00;21.80;99.90
57108;DHT22;42987;52.916;6.542;2023-07-29T15:03:26;21.90;99.90
57108;DHT22;42987;52.916;6.542;2023-07-29T15:05:52;21.90;99.90
57108;DHT22;42987;52.916;6.542;2023-07-29T15:08:17;22.00;99.90
57108;DHT22;42987;52.916;6.542;2023-07-29T15:10:49;22.10;99.90
57108;DHT22;42987;52.916;6.542;2023-07-29T15:13:15;22.20;99.90
57108;DHT22;42987;52.916;6.542;2023-07-29T15:15:44;22.30;99.90
57108;DHT22;42987;52.916;6.542;2023-07-29T15:18:10;22.30;99.90
57108;DHT22;42987;52.916;6.542;2023-07-29T15:20:36;22.30;99.90
57108;DHT22;42987;52.916;6.542;2023-07-29T15:23:02;22.40;99.90
57108;DHT22;42987;52.916;6.542;2023-07-29T15:25:28;22.50;99.90
57108;DHT22;42987;52.916;6.542;2023-07-29T15:27:54;22.60;99.90
57108;DHT22;42987;52.916;6.542;2023-07-29T15:30:19;22.70;99.90
57108;DHT22;42987;52.916;6.542;2023-07-29T15:32:45;22.70;99.90
57108;DHT22;42987;52.916;6.542;2023-07-29T15:35:11;22.80;99.90
57108;DHT22;42987;52.916;6.542;2023-07-29T15:37:40;22.80;99.90
57108;DHT22;42987;52.916;6.542;2023-07-29T15:40:06;22.90;99.90
57108;DHT22;42987;52.916;6.542;2023-07-29T15:42:33;22.90;99.90
57108;DHT22;42987;52.916;6.542;2023-07-29T15:44:59;22.90;99.90
57108;DHT22;42987;52.916;6.542;2023-07-29T15:47:28;22.90;99.90
57108;DHT22;42987;52.916;6.542;2023-07-29T15:49:56;22.90;99.90
57108;DHT22;42987;52.916;6.542;2023-07-29T15:52:21;23.00;99.90
57108;DHT22;42987;52.916;6.542;2023-07-29T15:54:47;22.90;99.90
57108;DHT22;42987;52.916;6.542;2023-07-29T15:57:15;22.80;99.90